Carville, Louisiana
Current Conditions -  °F | °C
As of 6:35 PM on Monday 22 Dec 2014 (Local Time) from KL38 Reporting Station
Scattered Clouds Scattered Clouds  
Wind Chill: 69°   Ceiling: Unl
Heat Index: 69°   Visibility: 10mi
Dew Point: 69°   Wind: 3mph
Humidity: 100%   Direction: 190°S
Pressure: 29.71"   Gusts: NA
Location:  30.22°N, 91.1°W
Report Text: KL38 230035Z AUTO 19003KT 10SM SCT033 21/21 A2971 RMK AO2 T02050205
Loading
Personal Weather Stations






























Interactive Weather Map New forecast layout! Learn more

10-Day Weather Forecast

Advertisements
Track Severe Weather on mobile